Time;durP1;ratioP1;P1;durP2;ratioP2;P2;SDS_P1;SDS_P2;PMS_P1;PMS_P2;Temp;Humidity;BMP_temperature;BMP_pressure;BME280_temperature;BME280_humidity;BME280_pressure;Samples;Min_cycle;Max_cycle;Signal;HPM_P1;HPM_P2
2023/09/12 00:00:48;;;;;;;7.65;2.45;;;;;;;15.47;58.59;94110.16;5083291;28;20099;-85
2023/09/12 00:03:14;;;;;;;6.13;3.00;;;;;;;15.47;58.85;94109.34;5065221;28;20096;-85
2023/09/12 00:05:40;;;;;;;6.45;2.35;;;;;;;15.55;58.85;94111.13;5083116;28;20020;-85
2023/09/12 00:08:06;;;;;;;8.60;2.75;;;;;;;15.54;58.06;94109.56;5083082;28;20053;-85
2023/09/12 00:10:32;;;;;;;11.07;2.88;;;;;;;15.45;58.70;94117.75;5082931;28;20039;-85
2023/09/12 00:13:00;;;;;;;9.60;2.75;;;;;;;15.40;59.20;94116.06;5083134;28;20033;-84
2023/09/12 00:15:26;;;;;;;6.25;2.72;;;;;;;15.44;59.74;94116.19;5083121;28;20062;-85
2023/09/12 00:17:51;;;;;;;11.45;2.80;;;;;;;15.38;59.44;94115.63;5083090;28;20044;-85
2023/09/12 00:20:17;;;;;;;6.93;2.40;;;;;;;15.30;59.43;94115.75;5064921;28;20356;-85
2023/09/12 00:22:42;;;;;;;7.15;2.53;;;;;;;15.32;59.98;94119.66;5083166;28;20050;-86
2023/09/12 00:25:08;;;;;;;9.05;3.15;;;;;;;15.27;59.98;94117.19;5082401;28;20074;-86
2023/09/12 00:27:34;;;;;;;5.90;2.60;;;;;;;15.20;60.53;94116.97;5083518;28;20020;-86
2023/09/12 00:29:59;;;;;;;5.82;2.72;;;;;;;15.19;60.77;94118.88;5083731;28;20214;-86
2023/09/12 00:32:24;;;;;;;5.03;2.72;;;;;;;15.11;61.64;94119.75;5083272;28;20207;-87
2023/09/12 00:34:50;;;;;;;8.38;3.33;;;;;;;15.05;61.41;94116.50;5083283;28;20023;-86
2023/09/12 00:37:15;;;;;;;6.63;2.63;;;;;;;15.04;61.50;94120.34;5082407;28;20086;-87
2023/09/12 00:39:41;;;;;;;7.03;2.60;;;;;;;15.04;61.62;94123.00;5083372;28;20059;-87
2023/09/12 00:42:07;;;;;;;5.70;2.58;;;;;;;15.04;60.64;94117.66;5083514;28;20116;-86
2023/09/12 00:44:33;;;;;;;9.38;3.50;;;;;;;15.02;60.24;94133.31;5082897;28;20043;-85
2023/09/12 00:47:00;;;;;;;10.63;3.00;;;;;;;15.04;59.59;94124.91;5083212;28;20131;-85
2023/09/12 00:49:28;;;;;;;14.13;3.10;;;;;;;14.99;59.88;94128.59;5083029;28;20013;-86
2023/09/12 00:51:56;;;;;;;7.05;2.22;;;;;;;14.93;60.36;94119.19;5083319;28;20040;-88
2023/09/12 00:54:25;;;;;;;3.58;2.50;;;;;;;14.87;60.69;94130.47;5083461;28;20230;-89
2023/09/12 00:56:50;;;;;;;8.52;2.47;;;;;;;14.92;60.29;94131.06;5085925;28;20017;-89
2023/09/12 00:59:18;;;;;;;7.70;2.58;;;;;;;15.00;59.80;94129.38;5069514;28;20121;-89
2023/09/12 01:01:50;;;;;;;10.27;2.65;;;;;;;14.96;59.56;94126.59;5087657;28;20021;-88
2023/09/12 01:04:15;;;;;;;;;;;;;;;14.94;59.72;94133.38;5070100;28;20028;-89
2023/09/12 01:06:41;;;;;;;9.13;3.38;;;;;;;14.87;60.04;94141.22;5069503;28;19985;-87
2023/09/12 01:09:07;;;;;;;6.57;2.55;;;;;;;14.85;60.46;94133.47;5069244;28;20024;-88
2023/09/12 01:11:33;;;;;;;6.55;2.40;;;;;;;14.91;60.26;94134.84;5086771;28;20049;-88
2023/09/12 01:13:58;;;;;;;11.07;2.53;;;;;;;14.85;60.42;94138.84;5086767;28;20046;-88
2023/09/12 01:16:24;;;;;;;4.30;2.50;;;;;;;14.77;60.39;94142.41;5086658;28;20048;-88
2023/09/12 01:18:49;;;;;;;6.03;2.03;;;;;;;14.78;60.41;94149.38;5069183;28;20028;-89
2023/09/12 01:21:24;;;;;;;8.55;2.80;;;;;;;14.74;60.74;94143.88;5068950;28;20099;-89
2023/09/12 01:24:20;;;;;;;11.07;2.90;;;;;;;14.66;61.15;94144.75;5086965;28;20024;-90
2023/09/12 01:26:57;;;;;;;5.90;2.60;;;;;;;14.58;61.43;94143.72;5086651;28;20050;-89
2023/09/12 01:29:25;;;;;;;4.80;2.47;;;;;;;14.54;61.61;94142.78;5086541;28;20091;-87
2023/09/12 01:31:52;;;;;;;8.85;2.80;;;;;;;14.51;61.70;94151.50;5086552;28;20069;-87
2023/09/12 01:34:19;;;;;;;10.13;2.70;;;;;;;14.54;62.08;94147.38;5068633;28;20275;-87
2023/09/12 01:36:44;;;;;;;8.27;2.60;;;;;;;14.55;61.89;94152.41;5086794;28;20037;-87
2023/09/12 01:39:09;;;;;;;5.75;3.13;;;;;;;14.47;62.07;94153.28;5086157;28;20073;-86
2023/09/12 01:41:43;;;;;;;6.85;3.00;;;;;;;14.42;62.03;94158.81;5068184;28;20307;-86
2023/09/12 01:44:11;;;;;;;6.93;2.72;;;;;;;14.41;62.43;94154.56;5086086;28;20016;-86
2023/09/12 01:46:38;;;;;;;14.93;3.20;;;;;;;14.34;62.50;94147.06;5084927;28;20017;-86
2023/09/12 01:49:05;;;;;;;7.95;2.65;;;;;;;14.20;62.92;94147.34;5085950;28;20013;-86
2023/09/12 01:51:31;;;;;;;7.25;2.80;;;;;;;14.21;63.01;94143.56;5086037;28;20315;-87
2023/09/12 01:54:00;;;;;;;14.80;3.10;;;;;;;14.24;63.06;94156.28;5086317;28;20020;-88
2023/09/12 01:56:26;;;;;;;6.30;2.22;;;;;;;14.30;62.88;94156.09;5068332;28;20394;-88
2023/09/12 01:58:54;;;;;;;12.68;2.67;;;;;;;14.25;62.91;94149.81;5085884;28;20025;-88
2023/09/12 02:01:20;;;;;;;8.93;2.40;;;;;;;14.31;62.72;94152.28;5085954;28;20095;-88
2023/09/12 02:03:45;;;;;;;7.05;2.65;;;;;;;14.30;62.64;94151.50;5068306;28;20046;-88
2023/09/12 02:06:11;;;;;;;8.50;2.90;;;;;;;14.23;63.02;94162.78;5068255;28;20066;-88
2023/09/12 02:08:36;;;;;;;8.65;4.82;;;;;;;14.19;63.64;94156.50;5086078;28;20352;-88
2023/09/12 02:11:01;;;;;;;6.25;3.00;;;;;;;14.13;64.21;94151.66;5085777;28;20044;-89
2023/09/12 02:13:27;;;;;;;8.30;2.88;;;;;;;14.11;64.52;94160.03;5085913;28;20040;-88
2023/09/12 02:15:59;;;;;;;7.18;2.75;;;;;;;14.12;64.60;94155.44;5068150;28;20374;-88
2023/09/12 02:18:24;;;;;;;8.90;3.17;;;;;;;14.10;64.79;94163.03;5085569;28;20021;-90
2023/09/12 02:20:50;;;;;;;4.85;2.60;;;;;;;14.08;64.56;94155.31;5085615;28;20032;-89
2023/09/12 02:23:25;;;;;;;5.75;3.30;;;;;;;14.02;64.59;94156.63;5085685;28;20070;-90
2023/09/12 02:25:50;;;;;;;8.68;3.30;;;;;;;14.05;64.62;94150.63;5085631;28;20096;-90
2023/09/12 02:28:16;;;;;;;5.93;3.42;;;;;;;14.04;64.52;94152.53;5085644;28;20040;-90
2023/09/12 02:30:44;;;;;;;4.60;2.25;;;;;;;14.03;64.17;94150.94;5085892;28;20024;-88
2023/09/12 02:33:11;;;;;;;6.45;2.55;;;;;;;14.04;64.10;94154.41;5085675;28;20025;-90
2023/09/12 02:35:37;;;;;;;9.80;2.63;;;;;;;14.03;64.27;94158.22;5068089;28;20103;-91
2023/09/12 02:38:05;;;;;;;9.63;3.35;;;;;;;14.06;64.43;94157.53;5085488;28;20334;-90
2023/09/12 02:40:34;;;;;;;4.53;2.45;;;;;;;14.03;64.29;94156.31;5067718;28;20027;-88
2023/09/12 02:42:59;;;;;;;8.05;2.30;;;;;;;14.03;63.90;94158.22;5085207;28;20077;-87
2023/09/12 02:45:25;;;;;;;7.68;2.88;;;;;;;14.01;64.14;94155.06;5067424;28;20020;-88
2023/09/12 02:47:50;;;;;;;8.93;3.08;;;;;;;14.02;64.19;94157.44;5085361;28;20126;-87
2023/09/12 02:50:16;;;;;;;6.88;2.65;;;;;;;14.01;64.08;94155.06;5085092;28;20066;-89
2023/09/12 02:52:41;;;;;;;6.90;2.80;;;;;;;13.98;64.12;94169.09;5067492;28;20027;-85
2023/09/12 02:55:07;;;;;;;12.73;2.80;;;;;;;13.94;64.77;94162.84;5085169;28;20085;-89
2023/09/12 02:57:32;;;;;;;7.32;3.40;;;;;;;13.92;64.89;94159.69;5085353;28;20024;-89
2023/09/12 02:59:58;;;;;;;7.75;2.67;;;;;;;13.87;64.87;94155.31;5084944;28;20028;-88
2023/09/12 03:02:23;;;;;;;7.60;2.67;;;;;;;13.83;64.87;94171.25;5083801;28;20024;-91
2023/09/12 03:04:49;;;;;;;9.20;3.03;;;;;;;13.80;65.26;94166.56;5067516;28;20069;-90
2023/09/12 03:07:14;;;;;;;6.82;2.65;;;;;;;13.78;65.59;94163.44;5085070;28;20051;-88
2023/09/12 03:09:40;;;;;;;9.30;2.42;;;;;;;13.74;65.83;94165.19;5067073;28;20051;-88
2023/09/12 03:12:06;;;;;;;5.07;2.58;;;;;;;13.68;66.05;94169.16;5084634;28;20040;-89
2023/09/12 03:14:31;;;;;;;4.45;2.28;;;;;;;13.64;66.44;94154.84;5066892;28;20024;-90
2023/09/12 03:16:57;;;;;;;7.75;2.72;;;;;;;13.60;66.59;94160.06;5084703;28;20021;-89
2023/09/12 03:19:22;;;;;;;11.02;2.65;;;;;;;13.62;66.66;94162.44;5066072;28;20031;-87
2023/09/12 03:21:48;;;;;;;8.43;2.90;;;;;;;13.57;66.86;94159.91;5084373;28;20043;-88
2023/09/12 03:24:13;;;;;;;5.97;2.45;;;;;;;13.54;66.85;94165.94;5084302;28;20053;-89
2023/09/12 03:26:39;;;;;;;8.73;2.53;;;;;;;13.41;66.97;94163.16;5084465;28;20024;-88
2023/09/12 03:29:07;;;;;;;7.63;2.70;;;;;;;13.41;67.32;94165.03;5066696;28;20052;-88
2023/09/12 03:31:35;;;;;;;5.22;2.45;;;;;;;13.42;67.58;94174.66;5066836;28;20307;-87
2023/09/12 03:34:01;;;;;;;8.40;2.55;;;;;;;13.34;67.78;94170.91;5084216;28;20027;-87
2023/09/12 03:36:26;;;;;;;6.13;2.42;;;;;;;13.33;67.54;94168.53;5066668;28;20028;-87
2023/09/12 03:38:52;;;;;;;5.90;2.88;;;;;;;13.30;67.56;94164.63;5084058;28;20029;-88
2023/09/12 03:41:17;;;;;;;10.05;3.97;;;;;;;13.36;66.79;94174.06;5083978;28;20031;-87
2023/09/12 03:43:43;;;;;;;6.35;2.40;;;;;;;13.43;65.98;94168.19;5084199;28;20377;-88
2023/09/12 03:46:08;;;;;;;5.90;2.47;;;;;;;13.50;65.49;94171.16;5084094;28;20024;-88
2023/09/12 03:48:36;;;;;;;6.28;2.30;;;;;;;13.53;65.04;94173.16;5084167;28;20013;-88
2023/09/12 03:51:03;;;;;;;12.38;2.70;;;;;;;13.50;65.79;94168.47;5083880;28;20260;-88
2023/09/12 03:53:29;;;;;;;14.55;3.10;;;;;;;13.45;66.22;94176.69;5066096;28;20223;-88
2023/09/12 03:55:54;;;;;;;10.30;4.53;;;;;;;13.42;66.47;94182.69;5066298;28;20051;-88
2023/09/12 03:58:20;;;;;;;6.43;2.90;;;;;;;13.36;67.07;94176.72;5066639;28;20364;-91
2023/09/12 04:00:45;;;;;;;13.75;3.25;;;;;;;13.34;67.45;94172.81;5084176;28;20145;-90
2023/09/12 04:03:11;;;;;;;11.65;2.72;;;;;;;13.39;67.37;94181.44;5066520;28;20040;-90
2023/09/12 04:05:39;;;;;;;6.88;2.72;;;;;;;13.35;67.34;94183.19;5083962;28;20346;-90
2023/09/12 04:08:05;;;;;;;7.72;2.90;;;;;;;13.32;67.58;94185.72;5084034;28;20016;-90
2023/09/12 04:10:32;;;;;;;10.82;3.30;;;;;;;13.27;67.84;94180.50;5084318;28;20226;-90
2023/09/12 04:13:04;;;;;;;18.27;3.78;;;;;;;13.21;68.37;94187.97;5084005;28;20017;-90
2023/09/12 04:15:30;;;;;;;11.93;3.05;;;;;;;13.20;68.44;94178.34;5066394;28;20020;-90
2023/09/12 04:17:55;;;;;;;16.70;3.17;;;;;;;13.16;68.70;94175.50;5083583;28;20028;-91
2023/09/12 04:20:21;;;;;;;15.32;3.45;;;;;;;13.17;68.87;94170.97;5083685;28;20032;-90
2023/09/12 04:22:49;;;;;;;11.95;3.30;;;;;;;13.17;68.87;94179.00;5083856;28;20044;-91
2023/09/12 04:25:15;;;;;;;19.48;3.40;;;;;;;13.22;69.04;94176.13;5083696;28;20218;-88
2023/09/12 04:27:42;;;;;;;12.00;3.63;;;;;;;13.25;68.72;94186.22;5066904;28;20020;-91
2023/09/12 04:30:08;;;;;;;6.60;3.35;;;;;;;13.28;68.43;94182.88;5085646;28;20031;-88
2023/09/12 04:32:34;;;;;;;18.83;4.00;;;;;;;13.27;68.55;94186.66;5086660;28;20020;-88
2023/09/12 04:34:59;;;;;;;22.33;3.70;;;;;;;13.28;68.60;94184.78;5087547;28;20027;-87
2023/09/12 04:37:25;;;;;;;9.95;4.03;;;;;;;13.36;68.14;94179.41;5069561;28;20027;-87
2023/09/12 04:39:51;;;;;;;23.10;4.22;;;;;;;13.48;67.86;94194.00;5087046;28;20456;-87
2023/09/12 04:42:16;;;;;;;23.05;4.95;;;;;;;13.52;68.08;94186.91;5086841;28;20032;-87
2023/09/12 04:44:42;;;;;;;12.25;4.28;;;;;;;13.59;67.36;94192.53;5085435;28;20036;-88
2023/09/12 04:47:09;;;;;;;9.40;4.40;;;;;;;13.70;66.99;94190.25;5085582;28;20024;-87
2023/09/12 04:49:39;;;;;;;10.02;3.50;;;;;;;13.72;66.45;94183.47;5085399;28;20214;-87
2023/09/12 04:52:05;;;;;;;17.85;3.50;;;;;;;13.77;66.37;94179.81;5068065;28;20047;-91
2023/09/12 04:54:30;;;;;;;17.08;4.45;;;;;;;13.82;66.33;94185.00;5086258;28;20311;-90
2023/09/12 04:56:56;;;;;;;12.15;3.30;;;;;;;13.88;65.95;94181.03;5085789;28;20027;-91
2023/09/12 04:59:27;;;;;;;6.32;3.47;;;;;;;13.96;65.65;94180.19;5085837;28;20031;-90
2023/09/12 05:01:52;;;;;;;15.70;4.45;;;;;;;13.99;65.40;94186.78;5085972;28;20021;-91
2023/09/12 05:04:27;;;;;;;12.13;3.75;;;;;;;14.03;64.79;94185.00;5087556;28;20159;-90
2023/09/12 05:06:55;;;;;;;10.93;3.92;;;;;;;14.10;64.82;94187.94;5088495;28;20314;-91
2023/09/12 05:09:21;;;;;;;10.10;3.30;;;;;;;14.16;65.61;94189.31;5069913;28;20410;-91
2023/09/12 05:11:48;;;;;;;6.93;3.70;;;;;;;14.21;65.35;94183.75;5086289;28;20112;-87
2023/09/12 05:14:14;;;;;;;12.30;3.65;;;;;;;14.20;65.27;94200.94;5086351;28;20183;-87
2023/09/12 05:16:39;;;;;;;10.60;3.60;;;;;;;14.28;65.08;94190.50;5086564;28;20016;-87
2023/09/12 05:19:05;;;;;;;14.68;4.45;;;;;;;14.27;65.14;94191.59;5086300;28;20024;-87
2023/09/12 05:21:31;;;;;;;9.05;4.22;;;;;;;14.33;64.94;94195.66;5068683;28;20021;-87
2023/09/12 05:23:56;;;;;;;18.30;4.50;;;;;;;14.37;65.11;94192.00;5068666;28;20024;-87
2023/09/12 05:26:22;;;;;;;26.58;5.32;;;;;;;14.47;64.84;94195.38;5068290;28;20025;-86
2023/09/12 05:28:47;;;;;;;24.95;5.95;;;;;;;14.51;65.02;94194.41;5086387;28;20016;-86
2023/09/12 05:31:13;;;;;;;20.50;5.97;;;;;;;14.60;64.64;94197.03;5086673;28;20206;-89
2023/09/12 05:33:38;;;;;;;16.23;4.88;;;;;;;14.67;64.09;94196.50;5086426;28;20020;-89
2023/09/12 05:36:04;;;;;;;14.40;4.72;;;;;;;14.74;64.07;94204.81;5068507;28;20024;-89
2023/09/12 05:38:29;;;;;;;12.77;4.97;;;;;;;14.78;63.87;94197.66;5068434;28;20035;-88
2023/09/12 05:40:56;;;;;;;15.18;5.13;;;;;;;14.81;63.52;94203.13;5084913;28;20061;-88
2023/09/12 05:43:21;;;;;;;8.48;4.43;;;;;;;14.87;63.02;94214.44;5085427;28;20028;-90
2023/09/12 05:45:47;;;;;;;10.70;5.00;;;;;;;14.89;62.40;94206.84;5086405;28;20258;-90
2023/09/12 05:48:12;;;;;;;10.18;4.60;;;;;;;14.93;61.98;94205.06;5085967;28;20024;-88
2023/09/12 05:50:38;;;;;;;11.30;4.93;;;;;;;14.98;61.38;94212.13;5084601;28;20028;-86
2023/09/12 05:53:03;;;;;;;9.48;4.57;;;;;;;15.03;60.93;94217.28;5085652;28;20216;-86
2023/09/12 05:55:29;;;;;;;15.55;4.78;;;;;;;15.08;61.27;94213.59;5085750;28;20058;-87
2023/09/12 05:57:54;;;;;;;15.05;6.60;;;;;;;15.09;61.54;94207.13;5085788;28;20122;-87
2023/09/12 06:00:20;;;;;;;14.32;5.57;;;;;;;15.10;61.97;94211.38;5067809;28;20277;-88
2023/09/12 06:02:47;;;;;;;13.90;5.35;;;;;;;15.23;61.57;94207.59;5068639;28;20108;-89
2023/09/12 06:05:12;;;;;;;12.45;5.10;;;;;;;15.30;61.42;94213.19;5085949;28;20028;-87
2023/09/12 06:07:40;;;;;;;16.60;5.53;;;;;;;15.34;61.01;94206.03;5085895;28;20103;-87
2023/09/12 06:10:10;;;;;;;19.80;5.28;;;;;;;15.43;60.63;94198.66;5087648;28;20047;-88
2023/09/12 06:12:38;;;;;;;12.93;4.88;;;;;;;15.51;60.26;94206.94;5095057;28;20024;-87
2023/09/12 06:15:10;;;;;;;13.10;5.32;;;;;;;15.56;60.09;94204.81;5071475;28;20314;-87
2023/09/12 06:17:43;;;;;;;12.73;5.63;;;;;;;15.65;59.40;94207.38;5086545;28;20021;-87
2023/09/12 06:20:09;;;;;;;10.63;4.75;;;;;;;15.72;59.26;94221.09;5085380;28;20046;-87
2023/09/12 06:22:37;;;;;;;14.65;5.07;;;;;;;15.80;58.73;94214.81;5085537;28;20311;-87
2023/09/12 06:25:04;;;;;;;13.48;5.18;;;;;;;15.85;58.50;94216.47;5067555;28;20104;-85
2023/09/12 06:27:32;;;;;;;17.48;4.90;;;;;;;15.89;58.62;94227.34;5085658;28;20020;-89
2023/09/12 06:29:58;;;;;;;13.63;4.35;;;;;;;15.95;57.77;94226.00;5068176;28;20205;-82
2023/09/12 06:32:23;;;;;;;19.88;4.78;;;;;;;15.98;57.80;94225.34;5067307;28;20234;-81
2023/09/12 06:34:49;;;;;;;9.63;4.32;;;;;;;16.01;57.83;94224.66;5084455;28;20226;-81
2023/09/12 06:37:14;;;;;;;15.98;4.35;;;;;;;16.05;57.10;94230.91;5084249;28;20021;-79
2023/09/12 06:39:40;;;;;;;11.68;5.53;;;;;;;16.11;57.67;94236.84;5084005;28;20024;-79
2023/09/12 06:42:06;;;;;;;17.27;5.00;;;;;;;16.17;57.68;94224.75;5084142;28;20314;-79
2023/09/12 06:44:31;;;;;;;24.02;5.80;;;;;;;16.23;57.17;94224.16;5084201;28;20024;-79
2023/09/12 06:46:57;;;;;;;9.52;4.78;;;;;;;16.27;56.81;94229.66;5066327;28;20020;-81
2023/09/12 06:49:22;;;;;;;12.88;5.00;;;;;;;16.36;56.72;94240.28;5084041;28;20083;-81
2023/09/12 06:51:48;;;;;;;17.48;7.13;;;;;;;16.41;55.52;94230.06;5066163;28;20077;-81
2023/09/12 06:54:14;;;;;;;16.05;5.28;;;;;;;16.47;55.90;94236.00;5064935;28;20024;-81
2023/09/12 06:56:42;;;;;;;14.18;5.07;;;;;;;16.57;55.68;94242.81;5083679;28;20021;-80
2023/09/12 06:59:11;;;;;;;10.48;5.30;;;;;;;16.59;55.53;94230.56;5083745;28;20321;-82
2023/09/12 07:01:38;;;;;;;10.77;4.63;;;;;;;16.70;55.16;94235.47;5083869;28;20024;-83
2023/09/12 07:04:04;;;;;;;9.98;4.60;;;;;;;16.74;55.16;94239.03;5065969;28;20319;-76
2023/09/12 07:06:29;;;;;;;14.30;5.50;;;;;;;16.77;55.17;94232.97;5083597;28;20021;-76
2023/09/12 07:08:55;;;;;;;14.63;5.68;;;;;;;16.85;54.61;94237.44;5084108;28;20017;-76
2023/09/12 07:11:20;;;;;;;25.42;4.93;;;;;;;16.93;54.52;94238.44;5065586;28;20056;-76
2023/09/12 07:13:46;;;;;;;12.57;4.47;;;;;;;17.04;54.29;94242.97;5083538;28;20078;-76
2023/09/12 07:16:11;;;;;;;16.73;5.25;;;;;;;17.18;55.01;94242.56;5083479;28;20215;-77
2023/09/12 07:18:37;;;;;;;19.73;4.18;;;;;;;17.33;53.79;94243.72;5083443;28;20096;-76
2023/09/12 07:21:04;;;;;;;21.17;5.28;;;;;;;17.32;53.51;94244.84;5083548;28;20040;-76
2023/09/12 07:23:30;;;;;;;16.73;4.35;;;;;;;17.39;53.18;94246.94;5083426;28;20020;-79
2023/09/12 07:25:57;;;;;;;10.60;4.25;;;;;;;17.45;51.98;94240.16;5083198;28;20031;-77
2023/09/12 07:28:23;;;;;;;10.05;3.83;;;;;;;17.46;51.79;94244.41;5083554;28;20012;-78
2023/09/12 07:30:49;;;;;;;10.93;4.20;;;;;;;17.54;52.14;94246.16;5083290;28;20047;-77
2023/09/12 07:33:14;;;;;;;10.20;4.60;;;;;;;17.55;52.28;94238.88;5065015;28;20078;-79
2023/09/12 07:35:40;;;;;;;12.00;5.30;;;;;;;17.74;51.30;94246.25;5065443;28;20022;-79
2023/09/12 07:38:05;;;;;;;10.77;4.68;;;;;;;17.83;50.70;94250.38;5082081;28;20031;-78
2023/09/12 07:40:30;;;;;;;20.65;5.03;;;;;;;17.95;50.61;94254.88;5083226;28;20024;-77
2023/09/12 07:42:56;;;;;;;16.05;4.88;;;;;;;18.03;50.59;94242.31;5083149;28;20307;-80
2023/09/12 07:45:21;;;;;;;13.30;5.22;;;;;;;18.12;49.95;94244.84;5082978;28;20021;-79
2023/09/12 07:47:47;;;;;;;12.57;4.65;;;;;;;18.18;49.01;94238.06;5083214;28;20021;-79
2023/09/12 07:50:13;;;;;;;15.65;4.28;;;;;;;18.31;49.50;94239.47;5081675;28;20114;-81
2023/09/12 07:52:39;;;;;;;16.35;4.30;;;;;;;18.41;49.11;94235.47;5064991;28;20028;-80
2023/09/12 07:55:05;;;;;;;10.05;4.32;;;;;;;18.51;48.16;94239.53;5082951;28;20107;-79
2023/09/12 07:57:30;;;;;;;10.15;3.83;;;;;;;18.57;47.52;94228.09;5083125;28;20039;-77
2023/09/12 07:59:56;;;;;;;12.45;4.28;;;;;;;18.70;47.98;94238.75;5082897;28;20353;-78
2023/09/12 08:02:22;;;;;;;12.63;4.13;;;;;;;18.82;48.11;94231.31;5083041;28;20035;-74
2023/09/12 08:04:50;;;;;;;17.77;4.40;;;;;;;18.92;47.42;94232.66;5082394;28;20083;-74
2023/09/12 08:07:16;;;;;;;16.60;4.38;;;;;;;19.03;47.54;94230.94;5082880;28;20024;-75
2023/09/12 08:09:49;;;;;;;19.42;4.35;;;;;;;19.18;45.80;94234.69;5082809;28;20425;-76
2023/09/12 08:12:14;;;;;;;9.50;3.38;;;;;;;19.30;43.85;94235.69;5082740;28;20052;-76
2023/09/12 08:14:40;;;;;;;9.23;3.25;;;;;;;19.37;43.73;94236.56;5082862;28;20024;-76
2023/09/12 08:17:05;;;;;;;18.95;3.60;;;;;;;19.44;43.80;94234.00;5082698;28;20020;-76
2023/09/12 08:19:30;;;;;;;14.70;3.50;;;;;;;19.48;44.43;94242.16;5082725;28;20315;-76
2023/09/12 08:21:56;;;;;;;6.88;3.45;;;;;;;19.52;44.46;94236.81;5082793;28;20104;-76
2023/09/12 08:24:21;;;;;;;11.15;4.07;;;;;;;19.60;45.20;94235.78;5082552;28;20032;-76
2023/09/12 08:26:46;;;;;;;8.93;3.15;;;;;;;19.74;44.92;94236.06;5082614;28;20095;-75
2023/09/12 08:29:12;;;;;;;10.38;3.70;;;;;;;19.86;44.10;94234.31;5082861;28;20051;-75
2023/09/12 08:31:37;;;;;;;12.07;3.38;;;;;;;19.97;44.28;94232.56;5082770;28;20025;-75
2023/09/12 08:34:03;;;;;;;13.77;4.32;;;;;;;20.09;44.16;94239.66;5064449;28;20311;-75
2023/09/12 08:36:28;;;;;;;13.05;3.53;;;;;;;20.21;42.58;94234.03;5064739;28;20024;-75
2023/09/12 08:38:53;;;;;;;15.27;3.58;;;;;;;20.29;43.09;94232.22;5082258;28;20029;-75
2023/09/12 08:41:19;;;;;;;10.57;3.20;;;;;;;20.22;43.14;94230.97;5082465;28;20024;-73
2023/09/12 08:43:45;;;;;;;12.45;3.50;;;;;;;20.37;43.26;94217.66;5082086;28;20233;-73
2023/09/12 08:46:12;;;;;;;12.63;3.92;;;;;;;20.53;43.24;94218.25;5082336;28;20047;-74
2023/09/12 08:48:39;;;;;;;12.13;4.10;;;;;;;20.72;42.75;94213.84;5082442;28;20040;-74
2023/09/12 08:51:07;;;;;;;9.88;2.85;;;;;;;20.87;42.21;94221.00;5082233;28;20028;-73
2023/09/12 08:53:32;;;;;;;15.98;3.47;;;;;;;20.92;41.66;94223.38;5064314;28;20074;-73
2023/09/12 08:55:59;;;;;;;19.88;3.40;;;;;;;21.06;41.74;94211.91;5082538;28;20025;-73
2023/09/12 08:58:25;;;;;;;13.32;4.40;;;;;;;21.07;41.18;94213.50;5082033;28;20044;-73
2023/09/12 09:00:51;;;;;;;11.60;3.10;;;;;;;21.10;41.29;94214.69;5082174;28;20091;-73
2023/09/12 09:03:18;;;;;;;10.82;2.35;;;;;;;21.19;40.27;94228.72;5082394;28;20101;-75
2023/09/12 09:05:45;;;;;;;11.75;3.22;;;;;;;21.29;40.15;94221.81;5064429;28;20350;-73
2023/09/12 09:08:13;;;;;;;11.77;3.10;;;;;;;21.38;40.76;94216.91;5082046;28;20037;-73
2023/09/12 09:10:38;;;;;;;8.77;3.28;;;;;;;21.49;40.46;94220.50;5081706;28;20041;-73
2023/09/12 09:13:06;;;;;;;17.95;4.75;;;;;;;21.60;39.78;94220.63;5081923;28;20026;-73
2023/09/12 09:15:32;;;;;;;14.20;3.45;;;;;;;21.61;39.00;94214.03;5081965;28;20016;-74
2023/09/12 09:18:00;;;;;;;13.07;4.20;;;;;;;21.67;38.87;94217.94;5084486;28;20036;-74
2023/09/12 09:20:29;;;;;;;11.23;3.42;;;;;;;21.67;38.85;94212.53;5085851;28;20219;-73
2023/09/12 09:23:05;;;;;;;11.20;3.25;;;;;;;21.64;38.79;94213.28;5085808;28;20055;-74
2023/09/12 09:25:32;;;;;;;9.35;3.47;;;;;;;21.75;39.31;94211.44;5085596;28;20020;-74
2023/09/12 09:27:58;;;;;;;9.05;3.35;;;;;;;21.87;39.33;94204.94;5067727;28;20024;-74
2023/09/12 09:30:40;;;;;;;7.35;2.80;;;;;;;21.96;39.90;94207.31;5085585;28;20380;-75
2023/09/12 09:33:05;;;;;;;13.65;3.28;;;;;;;22.07;39.34;94201.97;5085408;28;20028;-77
2023/09/12 09:35:31;;;;;;;6.20;2.78;;;;;;;22.17;38.71;94199.31;5067839;28;20095;-74
2023/09/12 09:37:57;;;;;;;11.27;3.47;;;;;;;22.29;38.30;94197.47;5085458;28;20092;-75
2023/09/12 09:40:23;;;;;;;11.02;4.28;;;;;;;22.33;38.14;94193.63;5085125;28;20025;-74
2023/09/12 09:42:53;;;;;;;8.95;2.88;;;;;;;22.37;37.41;94190.94;5085363;28;20033;-74
2023/09/12 09:45:19;;;;;;;12.45;2.95;;;;;;;22.39;37.06;94192.13;5067248;28;20028;-74
2023/09/12 09:47:45;;;;;;;13.02;3.08;;;;;;;22.44;37.83;94182.81;5085355;28;20032;-74
2023/09/12 09:50:14;;;;;;;11.13;2.78;;;;;;;22.60;38.53;94185.22;5084965;28;20029;-74
2023/09/12 09:52:40;;;;;;;11.68;3.47;;;;;;;22.70;38.10;94194.59;5085436;28;20091;-75
2023/09/12 09:55:06;;;;;;;13.57;3.10;;;;;;;22.81;37.02;94184.53;5085182;28;20024;-74
2023/09/12 09:57:37;;;;;;;11.35;3.60;;;;;;;22.90;36.68;94186.88;5084830;28;20028;-74
2023/09/12 10:00:08;;;;;;;13.43;3.28;;;;;;;22.91;36.55;94181.06;5084465;28;20097;-74
2023/09/12 10:02:37;;;;;;;14.67;3.13;;;;;;;23.02;37.94;94181.91;5084532;28;20062;-74
2023/09/12 10:05:05;;;;;;;11.43;2.55;;;;;;;23.19;36.95;94171.47;5066564;28;20242;-75
2023/09/12 10:07:40;;;;;;;15.73;3.30;;;;;;;23.34;36.00;94172.25;5084647;28;20077;-75
2023/09/12 10:10:07;;;;;;;9.88;2.53;;;;;;;23.34;35.74;94167.56;5084149;28;20012;-74
2023/09/12 10:12:36;;;;;;;8.20;3.45;;;;;;;23.46;36.42;94171.88;5084202;28;20031;-74
2023/09/12 10:15:04;;;;;;;14.23;3.63;;;;;;;23.63;37.08;94171.09;5084278;28;20025;-74
2023/09/12 10:17:36;;;;;;;12.05;2.85;;;;;;;23.73;36.24;94166.03;5084464;28;20012;-74
2023/09/12 10:20:04;;;;;;;12.32;3.17;;;;;;;23.88;35.94;94162.19;5084271;28;20283;-74
2023/09/12 10:23:14;;;;;;;12.45;4.13;;;;;;;23.93;35.09;94161.78;5084411;28;20070;-75
2023/09/12 10:25:41;;;;;;;11.95;3.25;;;;;;;24.04;35.41;94150.88;5037459;28;20234;-74
2023/09/12 10:28:07;;;;;;;8.30;3.25;;;;;;;24.19;36.01;94155.13;5083897;28;20043;-74
2023/09/12 10:30:34;;;;;;;11.15;3.15;;;;;;;24.40;36.52;94162.47;5066158;28;20072;-74
2023/09/12 10:33:03;;;;;;;9.10;2.40;;;;;;;24.56;35.24;94155.81;5084218;28;20042;-75
2023/09/12 10:35:30;;;;;;;9.25;3.00;;;;;;;24.69;35.75;94158.88;5084566;28;20256;-76
2023/09/12 10:38:01;;;;;;;16.45;3.15;;;;;;;24.79;34.01;94155.31;5084423;28;20021;-75
2023/09/12 10:40:27;;;;;;;9.00;3.22;;;;;;;24.72;33.09;94156.13;5066811;28;20025;-75
2023/09/12 10:42:55;;;;;;;5.57;2.40;;;;;;;24.74;33.15;94155.75;5084581;28;20279;-76
2023/09/12 10:45:21;;;;;;;5.68;2.75;;;;;;;24.70;33.52;94147.59;5084887;28;20024;-76
2023/09/12 10:47:46;;;;;;;16.23;3.20;;;;;;;24.75;33.65;94140.94;5084578;28;20031;-74
2023/09/12 10:50:12;;;;;;;13.20;2.97;;;;;;;24.71;33.51;94138.25;5084306;28;20036;-76
2023/09/12 10:52:39;;;;;;;13.23;3.42;;;;;;;24.70;33.54;94133.94;5084474;28;20038;-76
2023/09/12 10:55:06;;;;;;;9.32;2.85;;;;;;;24.67;33.39;94139.41;5084038;28;20026;-75
2023/09/12 10:57:32;;;;;;;11.43;3.13;;;;;;;24.80;33.50;94132.34;5084251;28;20214;-75
2023/09/12 11:00:08;;;;;;;10.60;3.35;;;;;;;24.87;33.76;94129.56;5083606;28;20024;-75
2023/09/12 11:02:43;;;;;;;7.13;2.65;;;;;;;25.07;35.01;94121.66;5083570;28;20030;-75
2023/09/12 11:05:27;;;;;;;9.35;3.00;;;;;;;25.25;32.04;94131.72;5083623;28;20031;-75
2023/09/12 11:07:59;;;;;;;10.98;2.85;;;;;;;25.27;32.01;94121.19;5083727;28;20031;-76
2023/09/12 11:10:25;;;;;;;13.52;3.13;;;;;;;25.34;32.76;94121.94;5083558;28;20285;-75
2023/09/12 11:13:00;;;;;;;8.85;2.97;;;;;;;25.43;32.86;94124.97;5083466;28;20052;-75
2023/09/12 11:15:28;;;;;;;14.00;3.03;;;;;;;25.58;31.85;94124.84;5083574;28;20028;-75
2023/09/12 11:18:14;;;;;;;14.00;3.35;;;;;;;25.74;32.70;94114.16;5083607;28;20031;-74
2023/09/12 11:21:03;;;;;;;9.00;2.40;;;;;;;25.75;29.29;94112.25;5083309;28;20036;-75
2023/09/12 11:23:31;;;;;;;9.45;3.17;;;;;;;25.74;30.17;94118.88;5083180;28;20020;-74
2023/09/12 11:26:07;;;;;;;15.15;2.88;;;;;;;25.87;31.78;94119.13;5083269;28;20208;-75
2023/09/12 11:28:33;;;;;;;10.77;2.47;;;;;;;26.03;30.15;94119.38;5083439;28;20024;-76